Time;durP1;ratioP1;P1;durP2;ratioP2;P2;SDS_P1;SDS_P2;PMS_P1;PMS_P2;Temp;Humidity;BMP_temperature;BMP_pressure;BME280_temperature;BME280_humidity;BME280_pressure;Samples;Min_cycle;Max_cycle;Signal;HPM_P1;HPM_P2
2022/07/24 00:02:24;;;;;;;69.60;10.60;;;;;;;;;;5092877;28;20447;-67
2022/07/24 00:04:53;;;;;;;66.37;9.93;;;;;;;;;;5092933;28;20435;-67
2022/07/24 00:07:20;;;;;;;68.63;10.00;;;;;;;;;;5092824;28;20490;-67
2022/07/24 00:09:47;;;;;;;66.77;9.83;;;;;;;;;;5092951;28;20475;-67
2022/07/24 00:12:14;;;;;;;66.17;9.53;;;;;;;;;;5092803;28;20446;-67
2022/07/24 00:14:42;;;;;;;68.60;10.77;;;;;;;;;;5092754;28;20995;-67
2022/07/24 00:17:09;;;;;;;67.47;9.77;;;;;;;;;;5092320;28;20447;-67
2022/07/24 00:19:37;;;;;;;67.00;9.40;;;;;;;;;;5092562;28;20466;-67
2022/07/24 00:22:04;;;;;;;67.83;9.90;;;;;;;;;;5093076;28;20446;-67
2022/07/24 00:24:32;;;;;;;64.70;9.50;;;;;;;;;;5092618;28;20442;-67
2022/07/24 00:27:00;;;;;;;67.07;10.67;;;;;;;;;;5092721;28;20446;-67
2022/07/24 00:29:27;;;;;;;72.63;10.70;;;;;;;;;;5092171;28;20475;-67
2022/07/24 00:31:54;;;;;;;66.93;9.67;;;;;;;;;;5092993;28;20449;-67
2022/07/24 00:34:22;;;;;;;70.17;10.00;;;;;;;;;;5092456;28;20916;-67
2022/07/24 00:36:50;;;;;;;68.47;10.03;;;;;;;;;;5092494;28;20449;-67
2022/07/24 00:39:17;;;;;;;67.77;9.97;;;;;;;;;;5092278;28;20446;-67
2022/07/24 00:41:44;;;;;;;66.17;9.80;;;;;;;;;;5092427;28;20818;-67
2022/07/24 00:44:12;;;;;;;66.30;10.30;;;;;;;;;;5092294;28;20442;-67
2022/07/24 00:46:41;;;;;;;67.60;10.33;;;;;;;;;;5092550;28;20444;-67
2022/07/24 00:49:10;;;;;;;64.83;10.00;;;;;;;;;;5092402;28;20820;-67
2022/07/24 00:51:37;;;;;;;66.90;10.20;;;;;;;;;;5092542;28;20447;-67
2022/07/24 00:54:06;;;;;;;67.93;10.83;;;;;;;;;;5092003;28;20531;-67
2022/07/24 00:56:34;;;;;;;68.97;10.90;;;;;;;;;;5092030;28;20465;-67
2022/07/24 00:59:01;;;;;;;67.20;10.87;;;;;;;;;;5091726;28;20461;-67
2022/07/24 01:01:28;;;;;;;67.73;11.10;;;;;;;;;;5092273;28;20493;-67
2022/07/24 01:03:56;;;;;;;68.10;11.03;;;;;;;;;;5092205;28;20525;-67
2022/07/24 01:06:23;;;;;;;65.87;9.70;;;;;;;;;;5092153;28;20457;-67
2022/07/24 01:08:51;;;;;;;68.40;10.40;;;;;;;;;;5091791;28;20473;-67
2022/07/24 01:11:20;;;;;;;70.33;11.00;;;;;;;;;;5091821;28;20466;-67
2022/07/24 01:13:48;;;;;;;74.43;14.40;;;;;;;;;;5092010;28;20442;-67
2022/07/24 01:16:15;;;;;;;66.73;9.37;;;;;;;;;;5091837;28;20936;-67
2022/07/24 01:18:42;;;;;;;68.30;10.57;;;;;;;;;;5091845;28;20468;-67
2022/07/24 01:21:11;;;;;;;68.20;10.70;;;;;;;;;;5092127;28;20544;-67
2022/07/24 01:23:38;;;;;;;66.40;10.17;;;;;;;;;;5091804;28;20446;-67
2022/07/24 01:26:07;;;;;;;67.50;9.70;;;;;;;;;;5092044;28;20893;-67
2022/07/24 01:28:35;;;;;;;68.57;10.50;;;;;;;;;;5091668;28;20458;-67
2022/07/24 01:31:02;;;;;;;71.33;10.37;;;;;;;;;;5093826;28;20470;-67
2022/07/24 01:33:29;;;;;;;69.90;9.80;;;;;;;;;;5096002;28;20801;-67
2022/07/24 01:35:57;;;;;;;67.43;10.20;;;;;;;;;;5095841;28;21021;-67
2022/07/24 01:38:25;;;;;;;65.93;9.90;;;;;;;;;;5095774;28;20456;-67
2022/07/24 01:40:53;;;;;;;69.23;10.50;;;;;;;;;;5095980;28;20470;-67
2022/07/24 01:43:20;;;;;;;69.00;10.60;;;;;;;;;;5095951;28;20831;-67
2022/07/24 01:45:47;;;;;;;72.00;10.70;;;;;;;;;;5095790;28;20743;-67
2022/07/24 01:48:14;;;;;;;69.30;10.60;;;;;;;;;;5094616;28;20442;-67
2022/07/24 01:50:41;;;;;;;68.90;11.30;;;;;;;;;;5095479;28;20497;-67
2022/07/24 01:53:09;;;;;;;66.30;10.37;;;;;;;;;;5095520;28;20457;-67
2022/07/24 01:55:37;;;;;;;67.53;10.33;;;;;;;;;;5095698;28;20496;-67
2022/07/24 01:58:04;;;;;;;71.10;11.10;;;;;;;;;;5095314;28;20828;-67
2022/07/24 02:00:31;;;;;;;68.17;10.40;;;;;;;;;;5095231;28;20462;-67
2022/07/24 02:02:58;;;;;;;70.57;10.40;;;;;;;;;;5095460;28;20446;-67
2022/07/24 02:05:26;;;;;;;69.63;10.13;;;;;;;;;;5095282;28;20477;-67
2022/07/24 02:07:57;;;;;;;68.90;10.20;;;;;;;;;;5095484;28;20450;-67
2022/07/24 02:10:24;;;;;;;67.37;10.50;;;;;;;;;;5095278;28;20466;-67
2022/07/24 02:12:53;;;;;;;66.60;10.43;;;;;;;;;;5095585;28;20525;-67
2022/07/24 02:15:20;;;;;;;67.30;10.50;;;;;;;;;;5095262;28;20453;-67
2022/07/24 02:17:47;;;;;;;67.87;10.80;;;;;;;;;;5095451;28;20446;-67
2022/07/24 02:20:15;;;;;;;68.57;10.73;;;;;;;;;;5094789;28;20474;-67
2022/07/24 02:22:42;;;;;;;67.87;10.27;;;;;;;;;;5095360;28;20813;-67
2022/07/24 02:25:09;;;;;;;74.63;10.30;;;;;;;;;;5095098;28;20486;-67
2022/07/24 02:27:36;;;;;;;69.60;9.80;;;;;;;;;;5095035;28;20446;-67
2022/07/24 02:30:06;;;;;;;67.53;9.60;;;;;;;;;;5094682;28;20473;-67
2022/07/24 02:32:33;;;;;;;67.30;10.43;;;;;;;;;;5094824;28;20448;-67
2022/07/24 02:35:00;;;;;;;69.37;10.93;;;;;;;;;;5094858;28;20443;-67
2022/07/24 02:37:27;;;;;;;68.27;10.87;;;;;;;;;;5095069;28;20543;-67
2022/07/24 02:39:54;;;;;;;68.87;9.90;;;;;;;;;;5094933;28;20545;-67
2022/07/24 02:42:22;;;;;;;66.40;9.50;;;;;;;;;;5094923;28;20446;-67
2022/07/24 02:44:49;;;;;;;68.30;11.50;;;;;;;;;;5094718;28;20593;-67
2022/07/24 02:47:17;;;;;;;67.90;10.73;;;;;;;;;;5094760;28;20863;-67
2022/07/24 02:49:44;;;;;;;69.13;10.90;;;;;;;;;;5094627;28;20859;-67
2022/07/24 02:52:12;;;;;;;64.90;9.80;;;;;;;;;;5094490;28;20456;-67
2022/07/24 02:54:39;;;;;;;68.00;10.70;;;;;;;;;;5094579;28;20822;-67
2022/07/24 02:57:06;;;;;;;67.40;10.60;;;;;;;;;;5094398;28;20446;-67
2022/07/24 02:59:33;;;;;;;66.40;10.60;;;;;;;;;;5094456;28;20842;-68
2022/07/24 03:02:00;;;;;;;65.87;9.20;;;;;;;;;;5094487;28;20469;-68
2022/07/24 03:04:29;;;;;;;67.60;10.67;;;;;;;;;;5094179;28;20447;-67
2022/07/24 03:06:56;;;;;;;66.40;10.33;;;;;;;;;;5094120;28;20951;-67
2022/07/24 03:09:23;;;;;;;70.80;12.03;;;;;;;;;;5094189;28;20457;-67
2022/07/24 03:11:50;;;;;;;68.23;10.87;;;;;;;;;;5094435;28;20449;-67
2022/07/24 03:14:17;;;;;;;67.47;10.47;;;;;;;;;;5094038;28;20529;-67
2022/07/24 03:16:44;;;;;;;66.77;9.97;;;;;;;;;;5093959;28;20446;-67
2022/07/24 03:19:12;;;;;;;68.07;11.10;;;;;;;;;;5094093;28;20542;-67
2022/07/24 03:21:40;;;;;;;69.17;10.20;;;;;;;;;;5094253;28;20872;-67
2022/07/24 03:24:07;;;;;;;67.00;10.13;;;;;;;;;;5093988;28;20834;-67
2022/07/24 03:26:34;;;;;;;87.73;11.03;;;;;;;;;;5094104;28;21020;-67
2022/07/24 03:29:02;;;;;;;68.17;10.43;;;;;;;;;;5093801;28;20537;-67
2022/07/24 03:31:29;;;;;;;67.70;10.27;;;;;;;;;;5093770;28;20462;-67
2022/07/24 03:33:56;;;;;;;67.27;9.67;;;;;;;;;;5093681;28;20455;-67
2022/07/24 03:36:23;;;;;;;69.40;10.97;;;;;;;;;;5093585;28;20530;-67
2022/07/24 03:38:51;;;;;;;68.67;10.83;;;;;;;;;;5093459;28;20447;-67
2022/07/24 03:41:18;;;;;;;68.30;10.67;;;;;;;;;;5093462;28;20841;-67
2022/07/24 03:43:46;;;;;;;66.60;9.90;;;;;;;;;;5093572;28;20537;-67
2022/07/24 03:46:13;;;;;;;68.63;10.23;;;;;;;;;;5093656;28;20482;-67
2022/07/24 03:48:40;;;;;;;70.17;10.90;;;;;;;;;;5093322;28;20482;-67
2022/07/24 03:51:07;;;;;;;67.67;10.33;;;;;;;;;;5093273;28;20547;-67
2022/07/24 03:53:34;;;;;;;68.80;10.93;;;;;;;;;;5092600;28;20446;-67
2022/07/24 03:56:06;;;;;;;67.53;10.60;;;;;;;;;;5093256;28;20845;-67
2022/07/24 03:58:33;;;;;;;70.90;12.30;;;;;;;;;;5092831;28;20497;-67
2022/07/24 04:01:00;;;;;;;68.50;10.73;;;;;;;;;;5093301;28;20470;-67
2022/07/24 04:03:27;;;;;;;68.80;11.50;;;;;;;;;;5093154;28;20443;-67
2022/07/24 04:05:54;;;;;;;67.17;10.67;;;;;;;;;;5093298;28;20962;-67
2022/07/24 04:08:21;;;;;;;67.57;10.40;;;;;;;;;;5092916;28;20452;-67
2022/07/24 04:10:49;;;;;;;67.80;11.17;;;;;;;;;;5093031;28;20466;-67
2022/07/24 04:13:17;;;;;;;66.77;10.00;;;;;;;;;;5093053;28;20458;-67
2022/07/24 04:15:44;;;;;;;69.70;10.90;;;;;;;;;;5093255;28;20539;-67
2022/07/24 04:18:11;;;;;;;67.00;10.00;;;;;;;;;;5092810;28;20450;-67
2022/07/24 04:20:38;;;;;;;67.47;10.53;;;;;;;;;;5092531;28;20463;-67
2022/07/24 04:23:05;;;;;;;67.63;10.80;;;;;;;;;;5092690;28;20952;-67
2022/07/24 04:25:34;;;;;;;67.60;10.57;;;;;;;;;;5092894;28;20482;-67
2022/07/24 04:28:01;;;;;;;67.97;11.27;;;;;;;;;;5092839;28;20451;-67
2022/07/24 04:30:30;;;;;;;70.87;12.43;;;;;;;;;;5092489;28;20994;-67
2022/07/24 04:32:57;;;;;;;67.80;10.67;;;;;;;;;;5092634;28;20486;-67
2022/07/24 04:35:24;;;;;;;67.70;9.93;;;;;;;;;;5092467;28;20445;-67
2022/07/24 04:37:51;;;;;;;67.77;10.70;;;;;;;;;;5092778;28;20456;-67
2022/07/24 04:40:18;;;;;;;68.17;10.90;;;;;;;;;;5092069;28;21029;-67
2022/07/24 04:42:46;;;;;;;67.10;10.50;;;;;;;;;;5092396;28;20457;-67
2022/07/24 04:45:13;;;;;;;68.17;10.70;;;;;;;;;;5092457;28;20561;-67
2022/07/24 04:47:42;;;;;;;69.17;11.83;;;;;;;;;;5092362;28;20446;-67
2022/07/24 04:50:09;;;;;;;69.70;10.87;;;;;;;;;;5091822;28;20470;-67
2022/07/24 04:52:36;;;;;;;67.30;9.93;;;;;;;;;;5092198;28;20450;-67
2022/07/24 04:55:04;;;;;;;66.70;10.70;;;;;;;;;;5092626;28;20534;-67
2022/07/24 04:57:31;;;;;;;68.37;10.70;;;;;;;;;;5092158;28;20482;-67
2022/07/24 04:59:58;;;;;;;65.27;9.37;;;;;;;;;;5092152;28;20882;-67
2022/07/24 05:02:25;;;;;;;67.20;11.70;;;;;;;;;;5091952;28;20533;-67
2022/07/24 05:04:54;;;;;;;67.60;10.80;;;;;;;;;;5091490;28;20443;-67
2022/07/24 05:07:21;;;;;;;68.30;11.23;;;;;;;;;;5092045;28;20533;-67
2022/07/24 05:09:48;;;;;;;67.80;10.27;;;;;;;;;;5091644;28;21058;-67
2022/07/24 05:12:15;;;;;;;66.07;9.90;;;;;;;;;;5092275;28;20442;-67
2022/07/24 05:14:43;;;;;;;69.10;10.27;;;;;;;;;;5092156;28;20443;-67
2022/07/24 05:17:10;;;;;;;66.87;9.97;;;;;;;;;;5092093;28;20943;-67
2022/07/24 05:19:37;;;;;;;67.20;11.17;;;;;;;;;;5091377;28;20466;-67
2022/07/24 05:22:05;;;;;;;66.90;10.53;;;;;;;;;;5091830;28;20480;-67
2022/07/24 05:24:32;;;;;;;68.20;10.63;;;;;;;;;;5091972;28;20442;-67
2022/07/24 05:27:00;;;;;;;66.27;9.60;;;;;;;;;;5091884;28;20479;-67
2022/07/24 05:29:27;;;;;;;67.03;9.67;;;;;;;;;;5092058;28;20463;-67
2022/07/24 05:31:54;;;;;;;66.00;9.03;;;;;;;;;;5091673;28;20442;-67
2022/07/24 05:34:21;;;;;;;68.17;9.87;;;;;;;;;;5091542;28;20451;-67
2022/07/24 05:36:48;;;;;;;65.50;9.40;;;;;;;;;;5091681;28;20448;-67
2022/07/24 05:39:17;;;;;;;65.87;9.20;;;;;;;;;;5091525;28;20897;-67
2022/07/24 05:41:44;;;;;;;73.80;10.30;;;;;;;;;;5091773;28;20884;-67
2022/07/24 05:44:11;;;;;;;69.17;10.53;;;;;;;;;;5091857;28;20454;-67
2022/07/24 05:46:38;;;;;;;68.40;10.63;;;;;;;;;;5091530;28;20852;-67
2022/07/24 05:49:06;;;;;;;69.40;10.53;;;;;;;;;;5091827;28;20450;-67
2022/07/24 05:51:33;;;;;;;65.27;9.80;;;;;;;;;;5091817;28;20451;-67
2022/07/24 05:54:00;;;;;;;66.17;9.93;;;;;;;;;;5091617;28;20966;-67
2022/07/24 05:56:28;;;;;;;65.80;9.73;;;;;;;;;;5091689;28;20448;-67
2022/07/24 05:58:55;;;;;;;66.97;9.83;;;;;;;;;;5091131;28;20462;-67
2022/07/24 06:01:22;;;;;;;65.30;10.27;;;;;;;;;;5091559;28;20549;-67
2022/07/24 06:03:50;;;;;;;66.97;9.53;;;;;;;;;;5091344;28;20453;-67
2022/07/24 06:06:17;;;;;;;67.50;10.30;;;;;;;;;;5091370;28;20478;-67
2022/07/24 06:08:45;;;;;;;66.50;10.10;;;;;;;;;;5091302;28;20446;-67
2022/07/24 06:11:12;;;;;;;68.17;10.20;;;;;;;;;;5091302;28;21000;-67
2022/07/24 06:13:40;;;;;;;66.87;9.70;;;;;;;;;;5091588;28;20442;-67
2022/07/24 06:16:08;;;;;;;64.90;8.87;;;;;;;;;;5091879;28;20442;-67
2022/07/24 06:18:35;;;;;;;66.40;9.30;;;;;;;;;;5094929;28;21055;-67
2022/07/24 06:21:02;;;;;;;66.37;9.90;;;;;;;;;;5094924;28;20493;-67
2022/07/24 06:23:29;;;;;;;68.07;10.33;;;;;;;;;;5095010;28;20449;-67
2022/07/24 06:25:56;;;;;;;67.07;10.10;;;;;;;;;;5094903;28;20478;-67
2022/07/24 06:28:23;;;;;;;65.70;9.50;;;;;;;;;;5095200;28;20448;-67
2022/07/24 06:30:52;;;;;;;65.93;9.63;;;;;;;;;;5094972;28;20568;-67
2022/07/24 06:33:19;;;;;;;65.80;9.10;;;;;;;;;;5095177;28;20457;-67
2022/07/24 06:35:46;;;;;;;66.20;9.80;;;;;;;;;;5095004;28;20442;-67
2022/07/24 06:38:15;;;;;;;67.53;9.97;;;;;;;;;;5094748;28;20450;-67
2022/07/24 06:40:43;;;;;;;70.33;9.07;;;;;;;;;;5094492;28;20467;-67
2022/07/24 06:43:10;;;;;;;63.70;9.00;;;;;;;;;;5094825;28;20538;-67
2022/07/24 06:45:37;;;;;;;65.10;9.20;;;;;;;;;;5094782;28;20490;-67
2022/07/24 06:48:06;;;;;;;65.67;9.90;;;;;;;;;;5094592;28;20451;-67
2022/07/24 06:50:34;;;;;;;64.00;8.63;;;;;;;;;;5094379;28;20609;-67
2022/07/24 06:53:01;;;;;;;63.87;8.60;;;;;;;;;;5094349;28;20443;-67
2022/07/24 06:55:28;;;;;;;66.87;8.90;;;;;;;;;;5094602;28;20531;-67
2022/07/24 06:57:55;;;;;;;65.57;8.87;;;;;;;;;;5094447;28;20460;-67
2022/07/24 07:00:23;;;;;;;70.60;9.50;;;;;;;;;;5094273;28;20474;-67
2022/07/24 07:02:50;;;;;;;65.20;9.00;;;;;;;;;;5094454;28;20817;-67
2022/07/24 07:05:19;;;;;;;64.97;8.83;;;;;;;;;;5094161;28;20488;-67
2022/07/24 07:07:46;;;;;;;65.43;8.47;;;;;;;;;;5094418;28;20484;-67
2022/07/24 07:10:13;;;;;;;64.23;8.37;;;;;;;;;;5091417;28;20473;-67
2022/07/24 07:12:41;;;;;;;65.47;9.00;;;;;;;;;;5094322;28;20539;-68
2022/07/24 07:15:08;;;;;;;65.37;9.10;;;;;;;;;;5093645;28;20446;-67
2022/07/24 07:17:37;;;;;;;66.90;9.53;;;;;;;;;;5093269;28;20531;-67
2022/07/24 07:20:05;;;;;;;63.27;8.57;;;;;;;;;;5092937;28;20465;-67
2022/07/24 07:22:34;;;;;;;65.90;9.27;;;;;;;;;;5094278;28;20450;-67
2022/07/24 07:25:01;;;;;;;69.57;9.23;;;;;;;;;;5094094;28;20540;-67
2022/07/24 07:27:28;;;;;;;65.37;8.60;;;;;;;;;;5093897;28;20484;-65
2022/07/24 07:29:55;;;;;;;65.67;9.30;;;;;;;;;;5092861;28;20473;-65
2022/07/24 07:32:22;;;;;;;64.30;8.30;;;;;;;;;;5093830;28;20524;-65
2022/07/24 07:34:50;;;;;;;64.47;8.83;;;;;;;;;;5093916;28;20451;-65
2022/07/24 07:37:17;;;;;;;68.67;8.97;;;;;;;;;;5094046;28;20450;-65
2022/07/24 07:39:45;;;;;;;69.70;8.43;;;;;;;;;;5093676;28;20584;-65
2022/07/24 07:42:13;;;;;;;64.37;7.80;;;;;;;;;;5093731;28;20450;-65
2022/07/24 07:44:40;;;;;;;64.80;8.20;;;;;;;;;;5093431;28;21018;-65
2022/07/24 07:47:07;;;;;;;64.93;8.27;;;;;;;;;;5093427;28;20484;-65
2022/07/24 07:49:34;;;;;;;63.77;8.30;;;;;;;;;;5093096;28;20976;-65
2022/07/24 07:52:01;;;;;;;65.30;8.80;;;;;;;;;;5093926;28;20449;-65
2022/07/24 07:54:28;;;;;;;63.90;8.03;;;;;;;;;;5093656;28;20499;-65
2022/07/24 07:56:57;;;;;;;64.87;7.87;;;;;;;;;;5093480;28;20485;-64
2022/07/24 07:59:24;;;;;;;63.57;7.50;;;;;;;;;;5093071;28;20461;-65
2022/07/24 08:01:51;;;;;;;63.93;8.20;;;;;;;;;;5093153;28;20952;-65
2022/07/24 08:04:18;;;;;;;69.10;6.37;;;;;;;;;;5093611;28;20441;-65
2022/07/24 08:06:45;;;;;;;63.83;6.60;;;;;;;;;;5093087;28;20995;-65
2022/07/24 08:09:12;;;;;;;61.67;6.10;;;;;;;;;;5092828;28;20538;-67
2022/07/24 08:11:39;;;;;;;63.90;6.30;;;;;;;;;;5093136;28;20940;-67
2022/07/24 08:14:08;;;;;;;61.97;6.80;;;;;;;;;;5093165;28;20450;-67
2022/07/24 08:16:35;;;;;;;61.87;6.10;;;;;;;;;;5093217;28;20525;-66
2022/07/24 08:19:03;;;;;;;63.53;6.30;;;;;;;;;;5092530;28;20457;-67
2022/07/24 08:21:31;;;;;;;62.00;5.97;;;;;;;;;;5092925;28;20470;-67
2022/07/24 08:23:58;;;;;;;63.27;7.57;;;;;;;;;;5092721;28;20450;-67
2022/07/24 08:26:30;;;;;;;62.13;6.97;;;;;;;;;;5092683;28;20484;-65
2022/07/24 08:28:57;;;;;;;62.03;6.27;;;;;;;;;;5092583;28;20450;-67
2022/07/24 08:31:26;;;;;;;65.27;7.30;;;;;;;;;;5092515;28;20470;-65
2022/07/24 08:33:53;;;;;;;62.57;7.10;;;;;;;;;;5092776;28;20887;-65
2022/07/24 08:36:20;;;;;;;67.87;7.67;;;;;;;;;;5093054;28;20530;-65
2022/07/24 08:38:48;;;;;;;62.60;6.60;;;;;;;;;;5092161;28;20944;-65
2022/07/24 08:41:15;;;;;;;62.77;6.97;;;;;;;;;;5092136;28;20468;-65
2022/07/24 08:43:43;;;;;;;61.70;6.00;;;;;;;;;;5092574;28;20932;-65
2022/07/24 08:46:11;;;;;;;63.47;7.03;;;;;;;;;;5092612;28;20442;-64
2022/07/24 08:48:44;;;;;;;61.80;6.10;;;;;;;;;;5092214;28;20458;-65
2022/07/24 08:51:11;;;;;;;62.70;6.70;;;;;;;;;;5092324;28;20873;-65
2022/07/24 08:53:38;;;;;;;61.10;6.40;;;;;;;;;;5092232;28;20447;-65
2022/07/24 08:56:05;;;;;;;62.27;6.00;;;;;;;;;;5091979;28;20443;-65
2022/07/24 08:58:36;;;;;;;64.37;6.53;;;;;;;;;;5092092;28;20459;-64
2022/07/24 09:01:03;;;;;;;61.93;6.10;;;;;;;;;;5092132;28;20479;-65
2022/07/24 09:03:40;;;;;;;64.10;6.87;;;;;;;;;;5092432;28;20446;-65
2022/07/24 09:06:09;;;;;;;62.07;6.10;;;;;;;;;;5091892;28;20442;-65
2022/07/24 09:08:36;;;;;;;62.90;7.03;;;;;;;;;;5090315;28;20447;-65
2022/07/24 09:11:05;;;;;;;62.10;6.10;;;;;;;;;;5091674;28;20532;-65
2022/07/24 09:16:22;;;;;;;62.27;6.87;;;;;;;;;;5091666;28;20434;-65
2022/07/24 09:18:51;;;;;;;62.37;5.97;;;;;;;;;;5091612;28;20853;-65
2022/07/24 09:21:19;;;;;;;62.23;6.80;;;;;;;;;;5092041;28;20466;-65
2022/07/24 09:23:48;;;;;;;62.10;6.50;;;;;;;;;;5092067;28;20801;-65
2022/07/24 09:26:16;;;;;;;61.80;6.37;;;;;;;;;;5091875;28;20442;-65
2022/07/24 09:28:51;;;;;;;63.30;6.30;;;;;;;;;;5091557;28;20825;-65
2022/07/24 09:31:18;;;;;;;62.80;6.40;;;;;;;;;;5091663;28;20462;-65
2022/07/24 09:33:45;;;;;;;62.20;6.30;;;;;;;;;;5091805;28;20541;-65
2022/07/24 09:36:15;;;;;;;62.30;5.77;;;;;;;;;;5091900;28;20816;-65
2022/07/24 09:38:47;;;;;;;61.87;5.77;;;;;;;;;;5091659;28;20447;-65
2022/07/24 09:41:20;;;;;;;62.20;6.30;;;;;;;;;;5091786;28;21146;-65
2022/07/24 09:43:57;;;;;;;61.70;6.80;;;;;;;;;;5091694;28;20460;-65
2022/07/24 09:46:25;;;;;;;62.57;6.70;;;;;;;;;;5091876;28;20480;-65
2022/07/24 09:48:54;;;;;;;61.87;7.00;;;;;;;;;;5091458;28;20859;-65
2022/07/24 09:51:22;;;;;;;62.40;6.70;;;;;;;;;;5092189;28;20469;-65
2022/07/24 09:53:54;;;;;;;62.50;7.17;;;;;;;;;;5095802;28;20533;-65
2022/07/24 09:56:22;;;;;;;61.83;6.43;;;;;;;;;;5095567;28;20496;-65
2022/07/24 09:58:51;;;;;;;66.40;6.13;;;;;;;;;;5095249;28;20464;-65
2022/07/24 10:01:20;;;;;;;61.10;6.07;;;;;;;;;;5095353;28;20477;-65
2022/07/24 10:03:48;;;;;;;62.03;5.97;;;;;;;;;;5096061;28;20848;-65
2022/07/24 10:06:17;;;;;;;61.47;6.50;;;;;;;;;;5095564;28;20542;-65
2022/07/24 10:08:47;;;;;;;61.77;6.57;;;;;;;;;;5094938;28;20486;-65
2022/07/24 10:11:14;;;;;;;63.57;5.87;;;;;;;;;;5095267;28;20959;-65
2022/07/24 10:13:42;;;;;;;63.27;6.27;;;;;;;;;;5095261;28;20970;-65
2022/07/24 10:16:26;;;;;;;61.43;6.50;;;;;;;;;;5095462;28;20529;-65
2022/07/24 10:18:55;;;;;;;63.47;6.00;;;;;;;;;;5094826;28;20943;-65
2022/07/24 10:21:22;;;;;;;61.90;6.30;;;;;;;;;;5094903;28;20553;-65
2022/07/24 10:24:04;;;;;;;61.20;6.57;;;;;;;;;;5095180;28;20502;-65
2022/07/24 10:26:35;;;;;;;61.07;5.63;;;;;;;;;;5092619;28;20456;-65
2022/07/24 10:29:07;;;;;;;59.80;5.70;;;;;;;;;;5095101;28;20446;-65
2022/07/24 10:31:35;;;;;;;60.13;5.33;;;;;;;;;;5095009;28;20442;-65
2022/07/24 10:34:05;;;;;;;63.10;6.30;;;;;;;;;;5094885;28;20446;-66
2022/07/24 10:36:33;;;;;;;59.83;6.50;;;;;;;;;;5094881;28;20477;-66
2022/07/24 10:39:05;;;;;;;59.80;5.67;;;;;;;;;;5094628;28;20525;-66
2022/07/24 10:41:33;;;;;;;59.00;5.43;;;;;;;;;;5094855;28;20450;-66
2022/07/24 10:44:14;;;;;;;60.10;6.13;;;;;;;;;;5094549;28;21039;-66
2022/07/24 10:46:56;;;;;;;58.90;5.33;;;;;;;;;;5094614;28;20473;-66
2022/07/24 10:49:34;;;;;;;61.80;6.00;;;;;;;;;;5094260;28;20819;-66
2022/07/24 10:52:01;;;;;;;59.60;5.13;;;;;;;;;;5094704;28;20448;-66
2022/07/24 10:54:29;;;;;;;59.27;5.17;;;;;;;;;;5094441;28;20438;-66
2022/07/24 10:56:57;;;;;;;58.77;5.40;;;;;;;;;;5094662;28;20438;-66
2022/07/24 10:59:33;;;;;;;59.27;5.80;;;;;;;;;;5093905;28;20956;-66
2022/07/24 11:02:20;;;;;;;59.43;5.63;;;;;;;;;;5094520;28;20457;-66
2022/07/24 11:04:47;;;;;;;61.70;7.07;;;;;;;;;;5093368;28;20442;-66
2022/07/24 11:07:15;;;;;;;59.37;5.93;;;;;;;;;;5094433;28;20561;-65
2022/07/24 11:10:07;;;;;;;59.20;5.20;;;;;;;;;;5094127;28;20498;-66
2022/07/24 11:12:43;;;;;;;61.07;5.60;;;;;;;;;;5079516;28;20494;-66
2022/07/24 11:17:54;;;;;;;58.70;5.50;;;;;;;;;;5094358;28;20426;-67
2022/07/24 11:20:22;;;;;;;58.87;5.60;;;;;;;;;;5090478;28;21051;-66
2022/07/24 11:22:52;;;;;;;58.60;5.17;;;;;;;;;;5093580;28;20475;-66
2022/07/24 11:25:20;;;;;;;58.70;5.70;;;;;;;;;;5093455;28;20456;-66
2022/07/24 11:27:50;;;;;;;60.20;6.27;;;;;;;;;;5093180;28;20834;-66
2022/07/24 11:30:18;;;;;;;59.20;5.17;;;;;;;;;;5092988;28;20471;-66
2022/07/24 11:32:45;;;;;;;60.30;6.50;;;;;;;;;;5093371;28;20451;-66
2022/07/24 11:35:12;;;;;;;59.97;6.43;;;;;;;;;;5092937;28;20895;-66
2022/07/24 11:37:41;;;;;;;61.87;5.40;;;;;;;;;;5093569;28;20478;-65
2022/07/24 11:40:09;;;;;;;61.40;6.33;;;;;;;;;;5093045;28;20466;-65
2022/07/24 11:42:36;;;;;;;59.83;5.60;;;;;;;;;;5093309;28;20540;-65
2022/07/24 11:45:05;;;;;;;61.27;5.60;;;;;;;;;;5093419;28;20447;-65
2022/07/24 11:47:32;;;;;;;59.47;4.90;;;;;;;;;;5093597;28;20529;-65
2022/07/24 11:50:00;;;;;;;60.00;5.90;;;;;;;;;;5093345;28;20471;-65
2022/07/24 11:52:31;;;;;;;59.07;5.33;;;;;;;;;;5092185;28;20455;-65
2022/07/24 11:55:00;;;;;;;59.37;5.37;;;;;;;;;;5093286;28;20457;-65
2022/07/24 11:57:28;;;;;;;62.57;5.70;;;;;;;;;;5093459;28;20485;-65
2022/07/24 11:59:56;;;;;;;60.07;5.90;;;;;;;;;;5093016;28;20476;-65
2022/07/24 12:02:24;;;;;;;58.73;5.40;;;;;;;;;;5093992;28;21020;-66
2022/07/24 12:04:52;;;;;;;59.03;5.40;;;;;;;;;;5093426;28;20791;-65
2022/07/24 12:07:20;;;;;;;58.77;5.57;;;;;;;;;;5093502;28;20454;-65
2022/07/24 12:09:49;;;;;;;63.20;6.20;;;;;;;;;;5092148;28;20502;-66
2022/07/24 12:12:19;;;;;;;58.93;5.07;;;;;;;;;;5092875;28;21031;-66
2022/07/24 12:14:47;;;;;;;59.50;6.40;;;;;;;;;;5092629;28;20446;-66
2022/07/24 12:17:14;;;;;;;58.80;5.50;;;;;;;;;;5093142;28;20447;-66
2022/07/24 12:19:51;;;;;;;58.37;5.60;;;;;;;;;;5092858;28;20468;-66
2022/07/24 12:22:18;;;;;;;58.80;5.70;;;;;;;;;;5090776;28;20452;-66
2022/07/24 12:24:46;;;;;;;59.07;5.37;;;;;;;;;;5093170;28;20446;-66
2022/07/24 12:27:13;;;;;;;59.50;6.00;;;;;;;;;;5092392;28;20443;-66
2022/07/24 12:29:43;;;;;;;59.10;5.43;;;;;;;;;;5092698;28;20466;-66
2022/07/24 12:32:17;;;;;;;62.30;6.10;;;;;;;;;;5092754;28;20870;-66
2022/07/24 12:34:47;;;;;;;60.20;5.80;;;;;;;;;;5092312;28;20530;-66
2022/07/24 12:37:17;;;;;;;59.10;6.20;;;;;;;;;;5092288;28;20545;-66
2022/07/24 12:39:47;;;;;;;58.00;5.67;;;;;;;;;;5092441;28;20498;-66
2022/07/24 12:42:15;;;;;;;59.60;5.60;;;;;;;;;;5092439;28;20997;-66
2022/07/24 12:44:44;;;;;;;60.90;6.80;;;;;;;;;;5092206;28;20805;-66
2022/07/24 12:47:11;;;;;;;61.40;7.07;;;;;;;;;;5091354;28;20835;-66
2022/07/24 12:49:42;;;;;;;58.50;5.50;;;;;;;;;;5091948;28;20473;-66
2022/07/24 12:52:23;;;;;;;58.80;5.67;;;;;;;;;;5092525;28;20536;-66
2022/07/24 12:54:51;;;;;;;58.80;5.50;;;;;;;;;;5090526;28;20450;-66
2022/07/24 12:57:18;;;;;;;58.50;5.17;;;;;;;;;;5092192;28;20538;-66
2022/07/24 12:59:46;;;;;;;59.20;5.53;;;;;;;;;;5091396;28;21064;-66
2022/07/24 13:02:14;;;;;;;61.40;6.03;;;;;;;;;;5091878;28;20445;-66
2022/07/24 13:04:43;;;;;;;62.77;7.60;;;;;;;;;;5091794;28;20470;-66
2022/07/24 13:07:10;;;;;;;58.47;5.93;;;;;;;;;;5091577;28;20541;-66
2022/07/24 13:09:39;;;;;;;59.30;5.63;;;;;;;;;;5092171;28;20884;-65
2022/07/24 13:12:07;;;;;;;59.17;5.50;;;;;;;;;;5092390;28;21064;-66
2022/07/24 13:14:34;;;;;;;58.60;5.50;;;;;;;;;;5092066;28;20892;-66
2022/07/24 13:17:05;;;;;;;59.17;6.07;;;;;;;;;;5091823;28;20546;-65
2022/07/24 13:19:32;;;;;;;59.20;5.33;;;;;;;;;;5091627;28;20565;-66
2022/07/24 13:21:59;;;;;;;59.43;5.30;;;;;;;;;;5091881;28;20539;-66
2022/07/24 13:24:26;;;;;;;60.80;6.30;;;;;;;;;;5092142;28;20446;-65
2022/07/24 13:26:55;;;;;;;58.87;5.93;;;;;;;;;;5089447;28;20446;-65
2022/07/24 13:29:24;;;;;;;58.30;5.33;;;;;;;;;;5091598;28;20539;-65
2022/07/24 13:31:51;;;;;;;58.00;5.20;;;;;;;;;;5091922;28;20455;-65
2022/07/24 13:34:18;;;;;;;59.27;5.60;;;;;;;;;;5092080;28;20453;-65
2022/07/24 13:36:46;;;;;;;62.50;5.90;;;;;;;;;;5091916;28;20473;-65
2022/07/24 13:39:14;;;;;;;61.07;5.27;;;;;;;;;;5091273;28;20577;-65
2022/07/24 13:41:41;;;;;;;58.20;6.10;;;;;;;;;;5091985;28;20469;-65
2022/07/24 13:44:09;;;;;;;58.60;5.33;;;;;;;;;;5091687;28;20451;-65
2022/07/24 13:46:36;;;;;;;60.10;5.43;;;;;;;;;;5091325;28;20451;-65
2022/07/24 13:49:04;;;;;;;60.50;5.63;;;;;;;;;;5090861;28;20849;-65
2022/07/24 13:51:31;;;;;;;62.33;5.80;;;;;;;;;;5091501;28;20866;-65
2022/07/24 13:53:59;;;;;;;59.20;5.80;;;;;;;;;;5091391;28;20445;-65
2022/07/24 13:56:27;;;;;;;59.27;5.20;;;;;;;;;;5091532;28;20452;-65
2022/07/24 13:58:54;;;;;;;61.30;6.37;;;;;;;;;;5089431;28;20492;-65
2022/07/24 14:01:23;;;;;;;59.67;6.50;;;;;;;;;;5091457;28;20549;-65
2022/07/24 14:03:50;;;;;;;59.17;5.60;;;;;;;;;;5091882;28;20478;-65
2022/07/24 14:06:17;;;;;;;60.63;5.57;;;;;;;;;;5090397;28;20857;-65
2022/07/24 14:08:44;;;;;;;61.37;6.00;;;;;;;;;;5090843;28;20879;-65
2022/07/24 14:11:11;;;;;;;59.87;5.70;;;;;;;;;;5091210;28;21023;-65
2022/07/24 14:13:39;;;;;;;58.63;5.60;;;;;;;;;;5091185;28;20538;-65
2022/07/24 14:16:07;;;;;;;59.70;5.90;;;;;;;;;;5091700;28;20473;-65
2022/07/24 14:18:36;;;;;;;60.17;5.90;;;;;;;;;;5090940;28;20478;-65
2022/07/24 14:21:03;;;;;;;59.53;6.23;;;;;;;;;;5091074;28;20462;-66
2022/07/24 14:23:30;;;;;;;60.27;5.27;;;;;;;;;;5092243;28;20447;-66
2022/07/24 14:25:57;;;;;;;58.57;5.10;;;;;;;;;;5090695;28;20450;-67
2022/07/24 14:28:24;;;;;;;61.60;6.33;;;;;;;;;;5091348;28;20438;-67
2022/07/24 14:30:51;;;;;;;60.47;6.17;;;;;;;;;;5092454;28;20466;-66
2022/07/24 14:33:18;;;;;;;60.20;6.83;;;;;;;;;;5091792;28;20461;-67
2022/07/24 14:35:47;;;;;;;59.83;5.20;;;;;;;;;;5091437;28;20450;-66
2022/07/24 14:38:14;;;;;;;59.30;5.50;;;;;;;;;;5095334;28;20514;-66